Padroni, Colorado
Current Conditions -  °F | °C
As of 4:10 PM on Thursday 18 Dec 2014 (Local Time) from KSTK Reporting Station
Haze Haze  
Wind Chill: 30°   Ceiling: Unl
Heat Index: 30°   Visibility: 5mi
Dew Point: 27°   Wind: 0mph
Humidity: 86%   Direction: NA
Pressure: 30.04"   Gusts: NA
Location:  40.78°N, 103.17°W
Report Text: KSTK 182310Z AUTO 00000KT 5SM BR CLR M01/M03 A3004 RMK AO2
Loading
Personal Weather Stations






























Interactive Weather Map New forecast layout! Learn more

10-Day Weather Forecast

Advertisements
Track Severe Weather on mobile